Time;durP1;ratioP1;P1;durP2;ratioP2;P2;SDS_P1;SDS_P2;PMS_P1;PMS_P2;Temp;Humidity;BMP_temperature;BMP_pressure;BME280_temperature;BME280_humidity;BME280_pressure;Samples;Min_cycle;Max_cycle;Signal;HPM_P1;HPM_P2
2023/05/14 00:02:25;;;;;;;10.57;5.95;;;14.10;1.00;;;;;;20646773;28;20382;-41
2023/05/14 00:12:26;;;;;;;7.88;4.93;;;14.20;1.00;;;;;;20633082;28;20030;-42
2023/05/14 00:22:27;;;;;;;10.70;5.78;;;14.10;1.00;;;;;;20636964;28;20182;-42
2023/05/14 00:32:28;;;;;;;9.77;5.43;;;14.00;1.00;;;;;;20636028;28;20522;-42
2023/05/14 00:42:29;;;;;;;12.32;5.72;;;14.00;1.00;;;;;;20628894;28;20486;-41
2023/05/14 00:52:31;;;;;;;9.88;5.70;;;14.00;1.00;;;;;;20636651;28;20042;-42
2023/05/14 01:02:32;;;;;;;9.10;5.20;;;13.90;1.00;;;;;;20627792;28;20038;-42
2023/05/14 01:12:36;;;;;;;15.43;5.60;;;13.80;1.00;;;;;;20631173;28;20374;-42
2023/05/14 01:22:37;;;;;;;10.85;5.38;;;13.70;1.00;;;;;;20623165;28;20362;-42
2023/05/14 01:32:40;;;;;;;12.98;5.50;;;13.70;1.00;;;;;;20634874;28;20038;-42
2023/05/14 01:42:42;;;;;;;8.93;5.20;;;13.60;1.00;;;;;;20632594;28;20041;-42
2023/05/14 01:52:43;;;;;;;11.93;5.38;;;13.60;2.40;;;;;;20632997;28;20155;-42
2023/05/14 02:02:44;;;;;;;10.43;5.00;;;13.50;7.90;;;;;;20629859;28;20053;-42
2023/05/14 02:12:45;;;;;;;12.48;5.90;;;13.40;6.50;;;;;;20643869;28;20038;-43
2023/05/14 02:22:47;;;;;;;12.20;5.38;;;13.40;8.80;;;;;;20636002;28;20502;-43
2023/05/14 02:32:48;;;;;;;9.32;5.05;;;13.30;14.10;;;;;;21075000;23;20052;-43
2023/05/14 02:42:49;;;;;;;11.18;4.93;;;13.30;11.50;;;;;;20654052;28;20038;-43
2023/05/14 02:52:50;;;;;;;8.90;4.90;;;13.30;11.20;;;;;;20668728;28;20430;-43
2023/05/14 03:02:51;;;;;;;13.35;5.72;;;13.20;12.60;;;;;;20667671;28;20053;-43
2023/05/14 03:12:54;;;;;;;8.38;4.82;;;13.10;15.20;;;;;;20655008;28;20042;-43
2023/05/14 03:22:55;;;;;;;9.45;5.43;;;13.10;14.60;;;;;;20654109;28;20038;-43
2023/05/14 03:32:56;;;;;;;14.38;6.25;;;13.00;15.80;;;;;;20652496;28;20060;-43
2023/05/14 03:42:57;;;;;;;9.43;5.30;;;13.10;17.40;;;;;;20659043;28;20031;-44
2023/05/14 03:52:58;;;;;;;11.10;5.93;;;13.10;16.50;;;;;;20653541;28;20049;-43
2023/05/14 04:03:00;;;;;;;9.63;5.93;;;13.00;18.40;;;;;;20649925;28;20042;-44
2023/05/14 04:13:01;;;;;;;10.63;5.93;;;12.90;18.20;;;;;;20660570;28;20041;-43
2023/05/14 04:23:02;;;;;;;11.50;6.22;;;12.70;21.70;;;;;;20653537;28;20405;-43
2023/05/14 04:33:03;;;;;;;15.10;6.50;;;12.70;25.40;;;;;;20644159;28;20050;-44
2023/05/14 04:43:27;;;;;;;11.13;5.47;;;12.80;33.20;;;;;;20652313;28;20039;-44
2023/05/14 04:53:34;;;;;;;11.98;6.05;;;12.90;48.40;;;;;;20630924;28;20084;-43
2023/05/14 05:03:35;;;;;;;12.52;5.90;;;12.70;56.30;;;;;;20629697;28;20042;-44
2023/05/14 05:13:36;;;;;;;11.35;6.03;;;12.60;65.00;;;;;;20581892;28;20062;-44
2023/05/14 05:23:37;;;;;;;13.95;7.35;;;12.60;81.10;;;;;;20639812;28;20167;-44
2023/05/14 05:33:38;;;;;;;13.52;5.88;;;12.60;91.10;;;;;;20631656;28;20520;-43
2023/05/14 05:43:39;;;;;;;12.63;6.07;;;12.80;94.80;;;;;;20640335;28;20042;-44
2023/05/14 05:53:40;;;;;;;10.30;6.22;;;13.00;97.10;;;;;;20633957;28;20041;-44
2023/05/14 06:03:41;;;;;;;13.73;5.75;;;13.30;95.10;;;;;;20638032;28;20044;-43
2023/05/14 06:13:43;;;;;;;10.35;6.22;;;13.60;72.40;;;;;;20645056;28;20042;-43
2023/05/14 06:23:44;;;;;;;11.27;6.78;;;13.70;53.10;;;;;;20645844;28;20041;-43
2023/05/14 06:33:45;;;;;;;12.82;5.78;;;13.70;42.80;;;;;;20638505;28;20143;-44
2023/05/14 06:43:46;;;;;;;11.65;5.88;;;13.60;40.80;;;;;;20639892;28;20418;-44
2023/05/14 06:53:47;;;;;;;12.18;5.32;;;13.50;42.10;;;;;;20640416;28;20096;-44
2023/05/14 07:03:48;;;;;;;9.80;5.88;;;13.60;45.60;;;;;;20649261;28;20061;-43
2023/05/14 07:13:49;;;;;;;9.25;4.82;;;13.70;36.00;;;;;;20649162;28;20046;-43
2023/05/14 07:23:50;;;;;;;9.35;4.25;;;13.90;31.90;;;;;;20659934;28;20042;-43
2023/05/14 07:33:51;;;;;;;10.45;4.70;;;14.20;18.00;;;;;;20651913;28;20049;-43
2023/05/14 07:43:52;;;;;;;9.63;3.83;;;14.50;10.30;;;;;;20655918;28;20402;-43
2023/05/14 07:53:54;;;;;;;6.13;3.80;;;14.80;4.90;;;;;;20648458;28;20045;-44
2023/05/14 08:03:55;;;;;;;8.50;4.00;;;15.00;1.90;;;;;;20642810;28;20379;-44
2023/05/14 08:13:56;;;;;;;9.27;4.85;;;15.10;1.40;;;;;;20639531;28;20049;-43
2023/05/14 08:23:57;;;;;;;6.85;5.03;;;15.40;1.00;;;;;;20635483;28;20046;-43
2023/05/14 08:33:58;;;;;;;7.30;4.25;;;15.60;1.00;;;;;;20626045;28;20042;-43
2023/05/14 08:44:08;;;;;;;9.75;3.97;;;16.00;1.00;;;;;;20661965;28;20517;-44
2023/05/14 08:54:13;;;;;;;7.47;4.25;;;16.40;1.00;;;;;;20664528;28;20053;-44
2023/05/14 09:04:22;;;;;;;9.48;5.10;;;16.50;1.00;;;;;;20660053;28;20037;-44
2023/05/14 09:14:23;;;;;;;7.53;3.90;;;16.60;1.00;;;;;;20665162;28;20045;-41
2023/05/14 09:24:27;;;;;;;9.68;3.20;;;16.70;1.00;;;;;;20650468;28;20042;-41
2023/05/14 09:34:31;;;;;;;7.78;3.03;;;16.90;1.00;;;;;;20660051;28;20374;-41
2023/05/14 09:44:32;;;;;;;5.75;2.75;;;17.10;1.00;;;;;;20662960;28;20560;-41
2023/05/14 09:54:34;;;;;;;7.70;4.43;;;17.60;1.00;;;;;;20662392;28;20050;-41
2023/05/14 10:04:36;;;;;;;5.70;3.10;;;17.80;1.00;;;;;;20656796;28;20043;-41
2023/05/14 10:14:44;;;;;;;6.13;3.20;;;17.80;1.00;;;;;;20654920;28;20505;-41
2023/05/14 10:24:46;;;;;;;7.45;3.40;;;17.90;1.00;;;;;;20640667;28;20046;-41
2023/05/14 10:34:47;;;;;;;5.32;3.30;;;18.20;1.00;;;;;;20644355;28;20276;-41
2023/05/14 10:45:01;;;;;;;5.97;3.05;;;18.20;1.00;;;;;;20666336;28;20042;-41
2023/05/14 10:55:07;;;;;;;7.32;2.80;;;18.50;1.00;;;;;;20652875;28;20126;-41
2023/05/14 11:05:18;;;;;;;3.53;2.50;;;18.80;1.00;;;;;;20668285;28;20046;-41
2023/05/14 11:15:21;;;;;;;13.52;3.70;;;18.70;1.00;;;;;;20660880;28;20412;-41
2023/05/14 11:25:24;;;;;;;7.88;2.70;;;19.00;1.00;;;;;;20656775;28;20433;-41
2023/05/14 11:35:26;;;;;;;6.05;2.50;;;18.90;1.00;;;;;;20666910;28;20583;-42
2023/05/14 11:45:28;;;;;;;7.03;2.83;;;19.00;1.00;;;;;;20658292;28;20464;-42
2023/05/14 11:55:29;;;;;;;6.32;2.75;;;19.30;1.00;;;;;;20670345;28;20038;-42
2023/05/14 12:05:30;;;;;;;5.47;2.10;;;19.60;1.00;;;;;;20655900;28;20042;-42
2023/05/14 12:15:31;;;;;;;6.10;2.92;;;19.80;1.00;;;;;;20656815;28;20031;-42
2023/05/14 12:25:32;;;;;;;5.13;2.45;;;19.90;1.00;;;;;;20649274;28;20382;-42
2023/05/14 12:35:35;;;;;;;6.03;2.53;;;20.00;1.00;;;;;;20669920;28;20049;-41
2023/05/14 12:45:36;;;;;;;2.75;2.10;;;20.20;1.00;;;;;;20666799;28;20550;-42
2023/05/14 12:55:37;;;;;;;6.28;2.60;;;20.70;1.00;;;;;;20643251;28;20414;-42
2023/05/14 13:05:38;;;;;;;11.00;2.85;;;20.60;1.00;;;;;;20643462;28;20271;-43
2023/05/14 13:15:39;;;;;;;5.88;3.05;;;20.20;1.00;;;;;;20664390;28;20088;-42
2023/05/14 13:25:40;;;;;;;4.65;2.92;;;20.00;1.00;;;;;;20646153;28;20039;-42
2023/05/14 13:35:41;;;;;;;4.47;2.40;;;20.10;1.00;;;;;;20640879;28;20041;-42
2023/05/14 13:45:42;;;;;;;10.57;2.47;;;20.30;1.00;;;;;;20638162;28;20046;-42
2023/05/14 13:55:44;;;;;;;3.75;2.60;;;20.80;1.00;;;;;;20635262;28;20541;-42
2023/05/14 14:05:45;;;;;;;4.40;2.13;;;20.90;1.00;;;;;;20646385;28;20053;-42
2023/05/14 14:15:46;;;;;;;2.90;1.80;;;20.80;1.00;;;;;;20657389;28;20042;-42
2023/05/14 14:25:47;;;;;;;5.90;2.45;;;20.60;1.00;;;;;;20634790;28;20084;-42
2023/05/14 14:35:48;;;;;;;5.45;2.20;;;20.40;1.00;;;;;;20635237;28;20612;-42
2023/05/14 14:45:50;;;;;;;4.30;2.30;;;20.30;1.00;;;;;;20636889;28;20054;-43
2023/05/14 14:55:51;;;;;;;5.70;2.85;;;20.30;1.00;;;;;;20644232;28;20034;-42
2023/05/14 15:05:53;;;;;;;4.10;2.30;;;20.20;1.00;;;;;;20642959;28;20069;-43
2023/05/14 15:15:54;;;;;;;5.85;2.80;;;20.20;1.00;;;;;;20629220;28;20045;-43
2023/05/14 15:25:55;;;;;;;6.35;2.80;;;20.20;1.00;;;;;;20645383;28;20552;-40
2023/05/14 15:35:56;;;;;;;4.82;2.70;;;20.10;1.00;;;;;;20647449;28;20042;-40
2023/05/14 15:45:57;;;;;;;9.40;3.22;;;19.80;1.00;;;;;;20655212;28;20069;-40
2023/05/14 15:55:58;;;;;;;4.40;2.40;;;19.80;1.00;;;;;;20655538;28;20053;-40
2023/05/14 16:05:59;;;;;;;7.78;3.08;;;20.00;1.00;;;;;;20650914;28;20038;-40
2023/05/14 16:16:00;;;;;;;7.57;3.28;;;19.80;1.00;;;;;;20646213;28;20068;-40
2023/05/14 16:26:01;;;;;;;8.20;3.42;;;19.60;1.00;;;;;;20648830;28;20801;-41
2023/05/14 16:36:05;;;;;;;5.03;3.08;;;19.10;1.00;;;;;;20646254;28;20583;-40
2023/05/14 16:46:07;;;;;;;7.47;2.90;;;18.60;1.00;;;;;;20642731;28;20352;-40
2023/05/14 16:56:08;;;;;;;5.97;3.25;;;18.20;1.00;;;;;;20649835;28;20038;-40
2023/05/14 17:06:09;;;;;;;5.30;3.00;;;18.00;1.00;;;;;;20637645;28;20564;-40
2023/05/14 17:16:10;;;;;;;7.57;4.05;;;17.70;1.00;;;;;;20664833;28;20053;-40
2023/05/14 17:26:11;;;;;;;6.00;2.67;;;17.50;1.00;;;;;;20657256;28;20038;-40
2023/05/14 17:36:12;;;;;;;5.60;2.63;;;17.40;1.00;;;;;;20650540;28;20093;-41
2023/05/14 17:46:14;;;;;;;7.35;3.75;;;17.10;1.00;;;;;;20643239;28;20058;-43
2023/05/14 17:56:16;;;;;;;5.13;2.92;;;16.80;1.00;;;;;;20637733;28;20034;-43
2023/05/14 18:06:17;;;;;;;6.60;3.08;;;16.60;1.00;;;;;;20648613;28;20496;-43
2023/05/14 18:16:18;;;;;;;4.53;2.90;;;16.30;1.00;;;;;;20646722;28;20039;-43
2023/05/14 18:26:20;;;;;;;6.65;3.40;;;16.20;1.00;;;;;;20615352;28;20054;-43
2023/05/14 18:36:21;;;;;;;5.05;3.40;;;16.00;1.00;;;;;;20636680;28;21168;-43
2023/05/14 18:46:23;;;;;;;7.47;3.75;;;15.70;1.00;;;;;;20640297;28;20069;-43
2023/05/14 18:56:24;;;;;;;6.00;3.17;;;15.50;1.00;;;;;;20647905;28;20045;-43
2023/05/14 19:06:25;;;;;;;5.45;3.40;;;15.40;1.00;;;;;;20658986;28;20679;-43
2023/05/14 19:16:27;;;;;;;6.50;3.10;;;15.20;1.00;;;;;;20664605;28;20120;-43
2023/05/14 19:26:28;;;;;;;10.75;3.10;;;14.90;1.00;;;;;;20642895;28;20599;-42
2023/05/14 19:36:32;;;;;;;6.35;3.53;;;14.70;1.00;;;;;;20649551;28;20057;-42
2023/05/14 19:46:33;;;;;;;4.93;2.97;;;14.50;1.00;;;;;;20632235;28;20057;-43
2023/05/14 19:56:34;;;;;;;5.97;3.15;;;14.40;1.00;;;;;;20650053;28;20041;-43
2023/05/14 20:06:37;;;;;;;9.80;3.78;;;14.20;1.00;;;;;;20625537;28;20054;-43
2023/05/14 20:16:38;;;;;;;7.07;3.25;;;14.10;1.00;;;;;;20633692;28;20415;-43
2023/05/14 20:26:39;;;;;;;7.13;3.67;;;14.00;1.00;;;;;;20656372;28;20057;-43
2023/05/14 20:36:41;;;;;;;7.43;3.22;;;14.00;1.00;;;;;;20648195;28;20048;-42
2023/05/14 20:46:42;;;;;;;10.27;4.05;;;13.80;1.00;;;;;;20649050;28;20046;-43
2023/05/14 20:56:43;;;;;;;7.22;3.90;;;13.50;1.00;;;;;;20653040;28;20513;-43
2023/05/14 21:06:45;;;;;;;6.60;3.58;;;13.50;1.00;;;;;;20658150;28;20043;-43
2023/05/14 21:16:46;;;;;;;7.30;4.53;;;13.40;1.00;;;;;;20641437;28;20501;-42
2023/05/14 21:26:47;;;;;;;9.73;4.90;;;13.40;1.00;;;;;;20642942;28;20042;-43
2023/05/14 21:36:48;;;;;;;9.00;4.43;;;13.20;1.00;;;;;;20632713;28;20405;-42
2023/05/14 21:46:49;;;;;;;9.65;4.38;;;13.00;1.00;;;;;;20638174;28;20129;-43
2023/05/14 21:56:51;;;;;;;8.88;5.05;;;12.90;1.70;;;;;;20629677;28;20049;-43
2023/05/14 22:06:52;;;;;;;11.38;5.63;;;12.80;6.50;;;;;;20640929;28;20046;-42
2023/05/14 22:16:53;;;;;;;11.77;6.28;;;12.60;7.70;;;;;;20634928;28;20065;-42
2023/05/14 22:26:54;;;;;;;16.35;7.32;;;12.40;6.30;;;;;;20635500;28;20045;-44
2023/05/14 22:36:55;;;;;;;14.40;7.28;;;12.30;12.80;;;;;;20657481;28;20045;-44
2023/05/14 22:46:56;;;;;;;12.05;6.78;;;12.50;12.70;;;;;;20648394;28;20360;-42
2023/05/14 22:56:57;;;;;;;15.65;7.60;;;12.40;2.80;;;;;;20650360;28;20038;-44
2023/05/14 23:06:58;;;;;;;13.30;6.82;;;12.40;9.90;;;;;;20642495;28;20473;-43
2023/05/14 23:16:59;;;;;;;18.88;9.23;;;12.20;2.00;;;;;;20637561;28;20038;-42
2023/05/14 23:27:01;;;;;;;17.17;9.38;;;12.10;11.00;;;;;;20630180;28;20614;-43
2023/05/14 23:37:02;;;;;;;19.23;9.20;;;12.00;17.20;;;;;;20639640;28;20050;-44
2023/05/14 23:47:03;;;;;;;23.20;10.65;;;12.00;18.40;;;;;;20635765;28;20405;-43
2023/05/14 23:57:04;;;;;;;21.25;11.15;;;11.90;19.20;;;;;;20631698;28;20042;-43
